FHAW

Ascension Aux Af Airport

Georgetown, , Saint Helena
METAR FHAW 162050Z 13010KT 9999 FEW022 BKN037 23/20 Q1015 BLU
Observed Flight Rules
Dec-16 @ 20:50 UTC (4 hours ago) Visual Flight Rules
Wind Visibility Clouds
130° at 10 knots 10,000+ meters
  • Few at 2,200' AGL
  • Broken at 3,700' AGL
Temperatures Readings
Current 23°C / 73°F
Dewpoint 20°C / 68°F
Humidity 83%
Altimeter 29.97" Hg
Pressure 1015 hPa
Elevation 79
METAR FHAW 162050Z 13010KT 9999 FEW022 BKN037 23/20 Q1015 BLU
Observed Flight Rules
Dec-16 @ 20:50 UTC
(4 hours ago)
VFR
Wind Visibility
130° at 10 knots 10,000+ meters
Clouds
  • Few at 2,200' AGL
  • Broken at 3,700' AGL
Temperature Dewpoint
23°C / 73°F 20°C / 68°F
Humidity Altimeter Pressure
83% 29.97" Hg 1015 hPa